createdAt,value
2022-11-20T00:08:17.750Z,101233.59
2022-11-20T00:18:25.065Z,101231.13
2022-11-20T00:28:28.177Z,101228.03
2022-11-20T00:38:32.823Z,101226.50
2022-11-20T00:48:36.078Z,101224.56
2022-11-20T00:58:42.483Z,101221.63
2022-11-20T01:08:46.189Z,101211.91
2022-11-20T01:18:52.927Z,101209.09
2022-11-20T01:28:58.603Z,101200.84
2022-11-20T01:39:05.894Z,101196.22
2022-11-20T01:49:16.343Z,101193.28
2022-11-20T01:59:23.328Z,101190.25
2022-11-20T02:09:26.587Z,101188.41
2022-11-20T02:19:33.060Z,101178.63
2022-11-20T02:29:40.751Z,101175.16
2022-11-20T02:39:46.229Z,101172.16
2022-11-20T02:49:50.841Z,101168.72
2022-11-20T02:59:53.757Z,101167.00
2022-11-20T03:09:58.226Z,101160.38
2022-11-20T03:20:01.439Z,101159.44
2022-11-20T03:30:09.031Z,101155.84
2022-11-20T03:40:12.324Z,101154.31
2022-11-20T03:50:17.873Z,101150.31
2022-11-20T04:00:21.155Z,101148.88
2022-11-20T04:10:25.676Z,101146.81
2022-11-20T04:20:28.893Z,101146.44
2022-11-20T04:30:33.397Z,101140.72
2022-11-20T04:40:36.491Z,101140.59
2022-11-20T04:50:42.965Z,101139.31
2022-11-20T05:00:46.142Z,101138.06
2022-11-20T05:10:50.778Z,101134.28
2022-11-20T05:21:00.696Z,101131.69
2022-11-20T05:31:09.947Z,101120.13
2022-11-20T05:41:14.993Z,101120.63
2022-11-20T05:51:21.253Z,101120.00
2022-11-20T06:01:26.171Z,101116.16
2022-11-20T06:11:30.791Z,101114.69
2022-11-20T06:21:34.223Z,101113.41
2022-11-20T06:31:39.186Z,101104.09
2022-11-20T06:41:42.392Z,101105.41
2022-11-20T06:51:47.276Z,101104.28
2022-11-20T07:01:50.773Z,101100.47
2022-11-20T07:11:55.322Z,101101.84
2022-11-20T07:21:58.472Z,101102.56
2022-11-20T07:32:05.287Z,101099.59
2022-11-20T07:42:08.719Z,101102.16
2022-11-20T07:52:16.048Z,101100.88
2022-11-20T08:02:19.045Z,101101.59
2022-11-20T08:12:42.039Z,101103.31
2022-11-20T08:22:45.242Z,101107.84
2022-11-20T08:32:49.845Z,101111.41
2022-11-20T08:42:53.041Z,101112.13
2022-11-20T08:53:02.970Z,101117.06
2022-11-20T09:03:08.019Z,101121.91
2022-11-20T09:13:12.499Z,101126.81
2022-11-20T09:23:16.128Z,101129.13
2022-11-20T09:33:20.494Z,101129.06
2022-11-20T09:43:35.224Z,101132.44
2022-11-20T09:53:52.730Z,101134.72
2022-11-20T10:03:59.985Z,101136.59
2022-11-20T10:14:18.001Z,101131.56
2022-11-20T10:24:40.828Z,101129.63
2022-11-20T10:34:52.193Z,101125.97
2022-11-20T10:45:16.986Z,101128.66
2022-11-20T10:55:34.622Z,101128.50
2022-11-20T11:05:43.763Z,101131.09
2022-11-20T11:15:48.444Z,101130.09
2022-11-20T11:25:59.495Z,101133.41
2022-11-20T11:36:17.919Z,101134.63
2022-11-20T11:46:33.680Z,101132.22
2022-11-20T11:56:38.407Z,101134.47
2022-11-20T12:06:47.482Z,101133.06
2022-11-20T12:16:54.099Z,101129.94
2022-11-20T12:27:10.830Z,101131.91
2022-11-20T12:37:30.149Z,101130.56
2022-11-20T12:47:44.904Z,101131.88
2022-11-20T12:57:55.111Z,101135.44
2022-11-20T13:07:59.342Z,101137.66
2022-11-20T13:18:09.705Z,101131.78
2022-11-20T13:28:30.737Z,101134.59
2022-11-20T13:38:46.104Z,101139.97
2022-11-20T13:48:49.525Z,101144.75
2022-11-20T13:59:05.370Z,101147.78
2022-11-20T14:09:12.792Z,101152.84
2022-11-20T14:19:32.180Z,101156.00
2022-11-20T14:29:40.234Z,101157.94
2022-11-20T14:39:51.182Z,101164.88
2022-11-20T14:49:56.102Z,101168.34
2022-11-20T15:00:19.560Z,101166.16
2022-11-20T15:10:37.537Z,101169.38
2022-11-20T15:20:48.010Z,101165.31
2022-11-20T15:30:55.579Z,101164.56
2022-11-20T15:41:22.354Z,101162.91
2022-11-20T15:51:38.096Z,101164.91
2022-11-20T16:01:55.665Z,101155.66
2022-11-20T16:12:03.587Z,101156.22
2022-11-20T16:22:12.716Z,101154.84
2022-11-20T16:32:15.912Z,101162.25
2022-11-20T16:42:23.164Z,101169.38
2022-11-20T16:52:26.709Z,101176.38
2022-11-20T17:02:32.102Z,101181.06
2022-11-20T17:12:38.721Z,101186.81
2022-11-20T17:22:55.146Z,101185.31
2022-11-20T17:33:03.239Z,101189.06
2022-11-20T17:43:29.301Z,101190.22
2022-11-20T17:53:39.916Z,101181.81
2022-11-20T18:03:46.102Z,101183.88
2022-11-20T18:14:14.053Z,101181.41
2022-11-20T18:24:22.098Z,101183.91
2022-11-20T18:34:33.378Z,101174.13
2022-11-20T18:44:56.362Z,101157.88
2022-11-20T18:54:59.463Z,101151.13
2022-11-20T19:05:07.498Z,101153.47
2022-11-20T19:15:11.136Z,101158.00
2022-11-20T19:25:15.839Z,101157.66
2022-11-20T19:35:19.034Z,101162.28
2022-11-20T19:45:23.697Z,101160.44
2022-11-20T19:55:26.774Z,101158.28
2022-11-20T20:05:32.055Z,101162.34
2022-11-20T20:15:37.395Z,101165.28
2022-11-20T20:25:42.817Z,101166.63
2022-11-20T20:35:46.315Z,101173.16
2022-11-20T20:45:53.716Z,101173.09
2022-11-20T20:55:57.000Z,101179.03
2022-11-20T21:06:02.813Z,101182.88
2022-11-20T21:16:09.078Z,101181.84
2022-11-20T21:26:19.081Z,101181.44
2022-11-20T21:36:26.481Z,101178.28
2022-11-20T21:46:33.630Z,101184.78
2022-11-20T21:56:37.113Z,101184.09
2022-11-20T22:06:42.082Z,101180.22
2022-11-20T22:16:47.668Z,101183.84
2022-11-20T22:26:53.853Z,101178.44
2022-11-20T22:36:59.819Z,101181.69
2022-11-20T22:47:10.107Z,101185.75
2022-11-20T22:57:19.751Z,101186.78
2022-11-20T23:07:24.243Z,101190.03
2022-11-20T23:17:27.713Z,101190.22
2022-11-20T23:27:32.189Z,101193.31
2022-11-20T23:37:37.511Z,101191.00
2022-11-20T23:47:41.865Z,101192.44
2022-11-20T23:57:44.884Z,101195.16
